Time;durP1;ratioP1;P1;durP2;ratioP2;P2;SDS_P1;SDS_P2;PMS_P1;PMS_P2;Temp;Humidity;BMP_temperature;BMP_pressure;BME280_temperature;BME280_humidity;BME280_pressure;Samples;Min_cycle;Max_cycle;Signal;HPM_P1;HPM_P2
2022/09/14 00:01:22;;;;;;;;;;;17.10;99.90;;;;;;5075870;28;20340;-64
2022/09/14 00:03:50;;;;;;;;;;;17.10;99.90;;;;;;5075360;28;19972;-64
2022/09/14 00:06:16;;;;;;;;;;;17.10;99.90;;;;;;5075540;28;19965;-64
2022/09/14 00:08:42;;;;;;;;;;;17.10;99.90;;;;;;5075754;28;19909;-64
2022/09/14 00:11:10;;;;;;;;;;;17.10;99.90;;;;;;5075675;28;20302;-64
2022/09/14 00:13:36;;;;;;;;;;;17.10;99.90;;;;;;5075655;28;20011;-64
2022/09/14 00:16:03;;;;;;;;;;;17.00;99.90;;;;;;5075291;28;20005;-63
2022/09/14 00:18:29;;;;;;;;;;;17.00;99.90;;;;;;5075539;28;20366;-64
2022/09/14 00:20:58;;;;;;;;;;;17.00;99.90;;;;;;5075459;28;19909;-64
2022/09/14 00:23:24;;;;;;;;;;;17.00;99.90;;;;;;5075133;28;19916;-64
2022/09/14 00:25:49;;;;;;;;;;;17.00;99.90;;;;;;5057084;28;19913;-64
2022/09/14 00:28:15;;;;;;;;;;;17.00;99.90;;;;;;5075349;28;19912;-64
2022/09/14 00:30:41;;;;;;;;;;;17.00;99.90;;;;;;5075278;28;19912;-64
2022/09/14 00:33:06;;;;;;;;;;;17.00;99.90;;;;;;5075217;28;19951;-64
2022/09/14 00:35:33;;;;;;;;;;;17.00;99.90;;;;;;5075189;28;19908;-64
2022/09/14 00:37:59;;;;;;;;;;;16.90;99.90;;;;;;5075108;28;19915;-64
2022/09/14 00:40:24;;;;;;;;;;;16.90;99.90;;;;;;5074863;28;20370;-64
2022/09/14 00:42:50;;;;;;;;;;;16.90;99.90;;;;;;5056992;28;20283;-64
2022/09/14 00:45:18;;;;;;;;;;;16.90;99.90;;;;;;5074925;28;19939;-64
2022/09/14 00:47:44;;;;;;;;;;;16.90;99.90;;;;;;5074194;28;19908;-64
2022/09/14 00:50:10;;;;;;;;;;;16.90;99.90;;;;;;5074590;28;20291;-64
2022/09/14 00:52:36;;;;;;;;;;;16.90;99.90;;;;;;5074835;28;19920;-64
2022/09/14 00:55:04;;;;;;;;;;;16.90;99.90;;;;;;5074812;28;19909;-64
2022/09/14 00:57:33;;;;;;;;;;;16.90;99.90;;;;;;5056650;28;19909;-64
2022/09/14 00:59:58;;;;;;;;;;;16.90;99.90;;;;;;5074472;28;19908;-64
2022/09/14 01:02:26;;;;;;;;;;;16.90;99.90;;;;;;5074370;28;20325;-64
2022/09/14 01:04:51;;;;;;;;;;;16.80;99.90;;;;;;5074134;28;20294;-64
2022/09/14 01:07:22;;;;;;;;;;;16.80;99.90;;;;;;5074565;28;20007;-64
2022/09/14 01:10:01;;;;;;;;;;;16.80;99.90;;;;;;5074495;28;20007;-64
2022/09/14 01:12:35;;;;;;;;;;;16.80;99.90;;;;;;5074466;28;19991;-64
2022/09/14 01:15:06;;;;;;;;;;;16.80;99.90;;;;;;5074406;28;19952;-64
2022/09/14 01:17:38;;;;;;;;;;;16.80;99.90;;;;;;5074123;28;20272;-64
2022/09/14 01:20:09;;;;;;;;;;;16.90;99.90;;;;;;5074112;28;19916;-64
2022/09/14 01:22:38;;;;;;;;;;;16.90;99.90;;;;;;5074291;28;20007;-64
2022/09/14 01:25:20;;;;;;;;;;;16.80;99.90;;;;;;5074196;28;19959;-64
2022/09/14 01:27:45;;;;;;;;;;;16.80;99.90;;;;;;5074198;28;19966;-64
2022/09/14 01:30:13;;;;;;;;;;;16.90;99.90;;;;;;5073938;28;20353;-64
2022/09/14 01:32:42;;;;;;;;;;;16.90;99.90;;;;;;5074169;28;19917;-64
2022/09/14 01:35:12;;;;;;;;;;;16.80;99.90;;;;;;5073815;28;19910;-63
2022/09/14 01:37:42;;;;;;;;;;;16.80;99.90;;;;;;5074066;28;19909;-64
2022/09/14 01:40:27;;;;;;;;;;;16.80;99.90;;;;;;5074035;28;20413;-64
2022/09/14 01:42:56;;;;;;;;;;;16.80;99.90;;;;;;5073676;28;19943;-63
2022/09/14 01:45:23;;;;;;;;;;;16.80;99.90;;;;;;5073700;28;19916;-64
2022/09/14 01:48:05;;;;;;;;;;;16.80;99.90;;;;;;5073723;28;20359;-64
2022/09/14 01:50:35;;;;;;;;;;;16.70;99.90;;;;;;5073629;28;19930;-63
2022/09/14 01:53:06;;;;;;;;;;;16.70;99.90;;;;;;5073917;28;19967;-64
2022/09/14 01:55:34;;;;;;;;;;;16.70;99.90;;;;;;5073666;28;20263;-64
2022/09/14 01:58:07;;;;;;;;;;;16.70;99.90;;;;;;5073845;28;19909;-63
2022/09/14 02:00:33;;;;;;;;;;;16.70;99.90;;;;;;5073668;28;19908;-64
2022/09/14 02:03:03;;;;;;;;;;;16.60;99.90;;;;;;5073803;28;19959;-64
2022/09/14 02:05:39;;;;;;;;;;;16.60;99.90;;;;;;5073270;28;19927;-64
2022/09/14 02:08:04;;;;;;;;;;;16.60;99.90;;;;;;5073767;28;20394;-63
2022/09/14 02:10:30;;;;;;;;;;;16.60;99.90;;;;;;5073769;28;19915;-64
2022/09/14 02:12:56;;;;;;;;;;;16.60;99.90;;;;;;5073700;28;20395;-64
2022/09/14 02:15:24;;;;;;;;;;;16.60;99.90;;;;;;5073724;28;19916;-64
2022/09/14 02:17:50;;;;;;;;;;;16.60;99.90;;;;;;5073676;28;19932;-64
2022/09/14 02:20:20;;;;;;;;;;;16.60;99.90;;;;;;5073365;28;20436;-64
2022/09/14 02:22:45;;;;;;;;;;;16.60;99.90;;;;;;5073360;28;19915;-64
2022/09/14 02:25:11;;;;;;;;;;;16.60;99.90;;;;;;5073540;28;19912;-64
2022/09/14 02:27:36;;;;;;;;;;;16.60;99.90;;;;;;5073566;28;19999;-64
2022/09/14 02:30:02;;;;;;;;;;;16.60;99.90;;;;;;5073350;28;20283;-64
2022/09/14 02:32:48;;;;;;;;;;;16.60;99.90;;;;;;5073247;28;19908;-64
2022/09/14 02:35:18;;;;;;;;;;;16.50;99.90;;;;;;5073111;28;19909;-64
2022/09/14 02:40:34;;;;;;;;;;;16.50;99.90;;;;;;5091264;27;20290;-64
2022/09/14 02:43:19;;;;;;;;;;;16.50;99.90;;;;;;5091403;28;19912;-64
2022/09/14 02:45:52;;;;;;;;;;;16.50;99.90;;;;;;5091177;28;19912;-64
2022/09/14 02:48:26;;;;;;;;;;;16.50;99.90;;;;;;5091048;28;19916;-64
2022/09/14 02:50:57;;;;;;;;;;;16.50;99.90;;;;;;5090983;28;19935;-64
2022/09/14 02:53:41;;;;;;;;;;;16.50;99.90;;;;;;5091203;28;19916;-65
2022/09/14 02:56:08;;;;;;;;;;;16.50;99.90;;;;;;5090880;28;19955;-64
2022/09/14 02:58:35;;;;;;;;;;;16.50;99.90;;;;;;5123829;28;19939;-64
2022/09/14 03:01:00;;;;;;;;;;;16.50;99.90;;;;;;5091097;28;20374;-64
2022/09/14 03:03:26;;;;;;;;;;;16.50;99.90;;;;;;5090812;28;19908;-64
2022/09/14 03:05:51;;;;;;;;;;;16.40;99.90;;;;;;5090987;28;19915;-65
2022/09/14 03:08:17;;;;;;;;;;;16.40;99.90;;;;;;5090934;28;20042;-64
2022/09/14 03:10:43;;;;;;;;;;;16.40;99.90;;;;;;5090888;28;19908;-64
2022/09/14 03:13:08;;;;;;;;;;;16.40;99.90;;;;;;5090871;28;20370;-64
2022/09/14 03:15:34;;;;;;;;;;;16.40;99.90;;;;;;5090575;28;19986;-64
2022/09/14 03:17:59;;;;;;;;;;;16.40;99.90;;;;;;5090524;28;20003;-64
2022/09/14 03:20:26;;;;;;;;;;;16.40;99.90;;;;;;5090607;28;20283;-64
2022/09/14 03:22:52;;;;;;;;;;;16.40;99.90;;;;;;5090663;28;19908;-64
2022/09/14 03:25:18;;;;;;;;;;;16.40;99.90;;;;;;5090647;28;20325;-64
2022/09/14 03:27:47;;;;;;;;;;;16.40;99.90;;;;;;5090531;28;19908;-64
2022/09/14 03:30:12;;;;;;;;;;;16.40;99.90;;;;;;5090510;28;19908;-64
2022/09/14 03:32:38;;;;;;;;;;;16.40;99.90;;;;;;5090482;28;19915;-64
2022/09/14 03:35:03;;;;;;;;;;;16.40;99.90;;;;;;5090418;28;19914;-64
2022/09/14 03:37:29;;;;;;;;;;;16.40;99.90;;;;;;5090160;28;19908;-64
2022/09/14 03:39:54;;;;;;;;;;;16.40;99.90;;;;;;5105569;28;19920;-64
2022/09/14 03:42:20;;;;;;;;;;;16.40;99.90;;;;;;5110375;28;19934;-64
2022/09/14 03:44:45;;;;;;;;;;;16.40;99.90;;;;;;5110313;28;20317;-64
2022/09/14 03:47:11;;;;;;;;;;;16.40;99.90;;;;;;5110254;28;19912;-64
2022/09/14 03:49:36;;;;;;;;;;;16.40;99.90;;;;;;5110120;28;19908;-64
2022/09/14 03:52:02;;;;;;;;;;;16.40;99.90;;;;;;5096284;28;19909;-64
2022/09/14 03:54:28;;;;;;;;;;;16.40;99.90;;;;;;5096812;28;19995;-64
2022/09/14 03:56:53;;;;;;;;;;;16.40;99.90;;;;;;5096514;28;19962;-63
2022/09/14 03:59:19;;;;;;;;;;;16.30;99.90;;;;;;5096706;28;19962;-64
2022/09/14 04:01:45;;;;;;;;;;;16.30;99.90;;;;;;5096429;28;20389;-64
2022/09/14 04:04:10;;;;;;;;;;;16.30;99.90;;;;;;5096629;28;19908;-65
2022/09/14 04:06:36;;;;;;;;;;;16.30;99.90;;;;;;5096375;28;19915;-64
2022/09/14 04:09:02;;;;;;;;;;;16.30;99.90;;;;;;5096297;28;19934;-64
2022/09/14 04:11:30;;;;;;;;;;;16.30;99.90;;;;;;5096236;28;19908;-64
2022/09/14 04:13:59;;;;;;;;;;;16.20;99.90;;;;;;5096414;28;19936;-65
2022/09/14 04:16:24;;;;;;;;;;;16.30;99.90;;;;;;5078090;28;19915;-64
2022/09/14 04:18:50;;;;;;;;;;;16.30;99.90;;;;;;5096320;28;19912;-64
2022/09/14 04:21:16;;;;;;;;;;;16.20;99.90;;;;;;5077959;28;20011;-64
2022/09/14 04:23:42;;;;;;;;;;;16.20;99.90;;;;;;5095982;28;19908;-64
2022/09/14 04:26:11;;;;;;;;;;;16.20;99.90;;;;;;5095929;28;19908;-64
2022/09/14 04:28:36;;;;;;;;;;;16.20;99.90;;;;;;5096165;28;20370;-63
2022/09/14 04:31:02;;;;;;;;;;;16.20;99.90;;;;;;5095898;28;19914;-64
2022/09/14 04:33:29;;;;;;;;;;;16.10;99.90;;;;;;5096102;28;19931;-63
2022/09/14 04:35:57;;;;;;;;;;;16.10;99.90;;;;;;5096013;28;19908;-64
2022/09/14 04:38:22;;;;;;;;;;;16.00;99.90;;;;;;5095709;28;21466;-63
2022/09/14 04:40:48;;;;;;;;;;;16.00;99.90;;;;;;5095951;28;19920;-64
2022/09/14 04:43:13;;;;;;;;;;;16.00;99.90;;;;;;5095877;28;20298;-64
2022/09/14 04:45:39;;;;;;;;;;;15.90;99.90;;;;;;5095526;28;20290;-64
2022/09/14 04:48:05;;;;;;;;;;;15.80;99.90;;;;;;5095736;28;19947;-64
2022/09/14 04:50:31;;;;;;;;;;;15.80;99.90;;;;;;5095472;28;19962;-63
2022/09/14 04:52:56;;;;;;;;;;;15.80;99.90;;;;;;5095674;28;19908;-64
2022/09/14 04:55:23;;;;;;;;;;;;;;;;;;5095415;28;19912;-64
2022/09/14 04:57:49;;;;;;;;;;;15.60;99.90;;;;;;5095350;28;19972;-64
2022/09/14 05:00:14;;;;;;;;;;;15.60;99.90;;;;;;5095188;28;20010;-64
2022/09/14 05:02:40;;;;;;;;;;;15.60;99.90;;;;;;5094268;28;19931;-64
2022/09/14 05:05:06;;;;;;;;;;;15.60;99.90;;;;;;5095454;28;19908;-63
2022/09/14 05:07:32;;;;;;;;;;;15.60;99.90;;;;;;5095134;28;19919;-64
2022/09/14 05:09:57;;;;;;;;;;;15.60;99.90;;;;;;5076944;28;19908;-64
2022/09/14 05:12:22;;;;;;;;;;;15.50;99.90;;;;;;5094981;28;19908;-64
2022/09/14 05:14:48;;;;;;;;;;;15.50;99.90;;;;;;5094988;28;19947;-64
2022/09/14 05:17:13;;;;;;;;;;;15.50;99.90;;;;;;5095191;28;19908;-64
2022/09/14 05:19:39;;;;;;;;;;;15.50;99.90;;;;;;5076790;28;20442;-64
2022/09/14 05:22:04;;;;;;;;;;;15.50;99.90;;;;;;5094834;28;19915;-64
2022/09/14 05:24:30;;;;;;;;;;;15.50;99.90;;;;;;5095093;28;19915;-64
2022/09/14 05:26:55;;;;;;;;;;;15.40;99.90;;;;;;5094787;28;19908;-64
2022/09/14 05:29:20;;;;;;;;;;;15.40;99.90;;;;;;5094712;28;19976;-64
2022/09/14 05:31:46;;;;;;;;;;;15.30;99.90;;;;;;5094664;28;19995;-64
2022/09/14 05:34:12;;;;;;;;;;;15.30;99.90;;;;;;5094863;28;20317;-63
2022/09/14 05:36:38;;;;;;;;;;;15.20;99.90;;;;;;5094843;28;19908;-64
2022/09/14 05:39:04;;;;;;;;;;;15.20;99.90;;;;;;5094431;28;19920;-64
2022/09/14 05:41:29;;;;;;;;;;;15.20;99.90;;;;;;5094766;28;19912;-63
2022/09/14 05:43:57;;;;;;;;;;;15.20;99.90;;;;;;5094706;28;20049;-64
2022/09/14 05:46:22;;;;;;;;;;;15.10;99.90;;;;;;5094646;28;19912;-64
2022/09/14 05:48:50;;;;;;;;;;;15.10;99.90;;;;;;5094167;28;19916;-63
2022/09/14 05:51:18;;;;;;;;;;;15.00;99.90;;;;;;5094573;28;19908;-64
2022/09/14 05:53:48;;;;;;;;;;;15.00;99.90;;;;;;5094012;28;19912;-64
2022/09/14 05:56:14;;;;;;;;;;;14.90;99.90;;;;;;5094508;28;20421;-63
2022/09/14 05:58:40;;;;;;;;;;;14.90;99.90;;;;;;5094398;28;20003;-64
2022/09/14 06:01:11;;;;;;;;;;;14.90;99.90;;;;;;5094124;28;19908;-63
2022/09/14 06:03:36;;;;;;;;;;;14.90;99.90;;;;;;5091028;28;20374;-64
2022/09/14 06:06:03;;;;;;;;;;;14.90;99.90;;;;;;5093977;28;19999;-64
2022/09/14 06:08:28;;;;;;;;;;;14.80;99.90;;;;;;5094222;28;19954;-64
2022/09/14 06:10:54;;;;;;;;;;;14.80;99.90;;;;;;5093735;28;19908;-64
2022/09/14 06:13:21;;;;;;;;;;;14.80;99.90;;;;;;5093541;28;19911;-63
2022/09/14 06:15:47;;;;;;;;;;;14.80;99.90;;;;;;5093869;28;19952;-64
2022/09/14 06:18:12;;;;;;;;;;;14.80;99.90;;;;;;5088865;28;20364;-64
2022/09/14 06:20:38;;;;;;;;;;;14.80;99.90;;;;;;5083323;28;19908;-64
2022/09/14 06:23:03;;;;;;;;;;;14.80;99.90;;;;;;5093736;28;19908;-64
2022/09/14 06:25:30;;;;;;;;;;;14.80;99.90;;;;;;5093658;28;19908;-64
2022/09/14 06:27:55;;;;;;;;;;;14.80;99.90;;;;;;5093727;28;20434;-65
2022/09/14 06:30:21;;;;;;;;;;;14.90;99.90;;;;;;5093681;28;19987;-65
2022/09/14 06:32:46;;;;;;;;;;;14.80;99.90;;;;;;5075582;28;20290;-64
2022/09/14 06:35:12;;;;;;;;;;;14.80;99.90;;;;;;5093545;28;19908;-64
2022/09/14 06:37:37;;;;;;;;;;;14.80;99.90;;;;;;5093533;28;19908;-64
2022/09/14 06:40:03;;;;;;;;;;;14.80;99.90;;;;;;5092814;28;19920;-64
2022/09/14 06:42:29;;;;;;;;;;;14.80;99.90;;;;;;5093557;28;19951;-65
2022/09/14 06:44:55;;;;;;;;;;;14.70;99.90;;;;;;5093636;28;19958;-64
2022/09/14 06:47:20;;;;;;;;;;;14.70;99.90;;;;;;5093434;28;19909;-64
2022/09/14 06:49:48;;;;;;;;;;;14.70;99.90;;;;;;5093451;28;20323;-66
2022/09/14 06:52:14;;;;;;;;;;;14.70;99.90;;;;;;5093345;28;19912;-65
2022/09/14 06:54:39;;;;;;;;;;;14.60;99.90;;;;;;5093661;28;19908;-65
2022/09/14 06:57:05;;;;;;;;;;;14.70;99.90;;;;;;5093500;28;19908;-65
2022/09/14 06:59:30;;;;;;;;;;;14.70;99.90;;;;;;5093297;28;19912;-63
2022/09/14 07:01:56;;;;;;;;;;;14.60;99.90;;;;;;5093444;28;19919;-65
2022/09/14 07:04:21;;;;;;;;;;;14.60;99.90;;;;;;5093016;28;19912;-65
2022/09/14 07:06:48;;;;;;;;;;;14.70;99.90;;;;;;5093288;28;19908;-65
2022/09/14 07:09:14;;;;;;;;;;;14.60;99.90;;;;;;5093307;28;19915;-64
2022/09/14 07:11:40;;;;;;;;;;;14.70;99.90;;;;;;5077516;28;20013;-64
2022/09/14 07:14:06;;;;;;;;;;;14.70;99.90;;;;;;5072999;28;20416;-65
2022/09/14 07:16:33;;;;;;;;;;;14.70;99.90;;;;;;5077622;28;19913;-65
2022/09/14 07:19:00;;;;;;;;;;;14.70;99.90;;;;;;5074091;28;19916;-66
2022/09/14 07:21:26;;;;;;;;;;;14.70;99.90;;;;;;5074091;28;19920;-66
2022/09/14 07:23:52;;;;;;;;;;;14.80;99.90;;;;;;5077909;28;20358;-64
2022/09/14 07:26:20;;;;;;;;;;;14.70;99.90;;;;;;5095476;28;19965;-65
2022/09/14 07:28:47;;;;;;;;;;;14.70;99.90;;;;;;5096505;28;19908;-65
2022/09/14 07:31:18;;;;;;;;;;;14.70;99.90;;;;;;5096516;28;19965;-64
2022/09/14 07:33:44;;;;;;;;;;;14.70;99.90;;;;;;5079435;28;19909;-64
2022/09/14 07:36:11;;;;;;;;;;;14.70;99.90;;;;;;5076007;28;20385;-65
2022/09/14 07:38:36;;;;;;;;;;;14.80;99.90;;;;;;5092319;28;19924;-64
2022/09/14 07:41:02;;;;;;;;;;;14.80;99.90;;;;;;5097142;28;20319;-64
2022/09/14 07:43:28;;;;;;;;;;;14.80;99.90;;;;;;5095543;28;19912;-65
2022/09/14 07:45:54;;;;;;;;;;;14.90;99.90;;;;;;5096604;28;19908;-64
2022/09/14 07:48:19;;;;;;;;;;;15.00;99.90;;;;;;5083331;28;20279;-64
2022/09/14 07:50:45;;;;;;;;;;;15.00;99.90;;;;;;5076180;28;19916;-64
2022/09/14 07:53:10;;;;;;;;;;;15.10;99.90;;;;;;5096920;28;19938;-64
2022/09/14 07:55:37;;;;;;;;;;;15.10;99.90;;;;;;5095672;28;19912;-64
2022/09/14 07:58:03;;;;;;;;;;;15.10;99.90;;;;;;5096346;28;19957;-64
2022/09/14 08:00:28;;;;;;;;;;;15.20;99.90;;;;;;5095683;28;19916;-63
2022/09/14 08:02:54;;;;;;;;;;;15.30;99.90;;;;;;5095528;28;19908;-64
2022/09/14 08:05:21;;;;;;;;;;;15.30;99.90;;;;;;5096822;28;19915;-64
2022/09/14 08:07:46;;;;;;;;;;;15.40;99.90;;;;;;5075266;28;19913;-63
2022/09/14 08:10:12;;;;;;;;;;;15.30;99.90;;;;;;5094861;28;19916;-64
2022/09/14 08:12:37;;;;;;;;;;;15.30;99.90;;;;;;5095743;28;19919;-64
2022/09/14 08:15:03;;;;;;;;;;;15.30;99.90;;;;;;5096020;28;19915;-64
2022/09/14 08:17:29;;;;;;;;;;;15.30;99.90;;;;;;5094825;28;19916;-64
2022/09/14 08:19:54;;;;;;;;;;;15.20;99.90;;;;;;5095582;28;19961;-64
2022/09/14 08:22:20;;;;;;;;;;;15.20;99.90;;;;;;5094881;28;19919;-64
2022/09/14 08:24:45;;;;;;;;;;;15.20;99.90;;;;;;5095378;28;19916;-64
2022/09/14 08:27:11;;;;;;;;;;;15.20;99.90;;;;;;5076965;28;19919;-65
2022/09/14 08:29:39;;;;;;;;;;;15.20;99.90;;;;;;5098012;28;20053;-63
2022/09/14 08:32:05;;;;;;;;;;;15.10;99.90;;;;;;5077538;28;19908;-63
2022/09/14 08:34:30;;;;;;;;;;;15.10;99.90;;;;;;5093694;28;19919;-65
2022/09/14 08:36:56;;;;;;;;;;;15.00;99.90;;;;;;5088319;28;19973;-64
2022/09/14 08:39:21;;;;;;;;;;;15.00;99.90;;;;;;5093817;28;19924;-62
2022/09/14 08:41:51;;;;;;;;;;;15.00;99.90;;;;;;5098046;28;19958;-62
2022/09/14 08:44:37;;;;;;;;;;;15.00;99.90;;;;;;5089072;28;19916;-63
2022/09/14 08:47:04;;;;;;;;;;;15.00;99.90;;;;;;5075609;28;19919;-62
2022/09/14 08:49:38;;;;;;;;;;;15.00;99.90;;;;;;5075150;28;19991;-63
2022/09/14 08:52:04;;;;;;;;;;;14.90;99.90;;;;;;5077423;28;19997;-63
2022/09/14 08:54:30;;;;;;;;;;;14.90;99.90;;;;;;5096220;28;19974;-63
2022/09/14 08:57:02;;;;;;;;;;;14.80;99.90;;;;;;5094099;28;20363;-65
2022/09/14 08:59:36;;;;;;;;;;;14.80;99.90;;;;;;5074683;28;19912;-63
2022/09/14 09:02:17;;;;;;;;;;;14.80;99.90;;;;;;5063633;28;20421;-63
2022/09/14 09:05:01;;;;;;;;;;;14.80;99.90;;;;;;5095504;28;20344;-64
2022/09/14 09:07:48;;;;;;;;;;;14.70;99.90;;;;;;5076881;28;20282;-64
2022/09/14 09:10:14;;;;;;;;;;;14.70;99.90;;;;;;5074343;28;19908;-64
2022/09/14 09:12:42;;;;;;;;;;;14.60;99.90;;;;;;5095995;28;19915;-64
2022/09/14 09:15:16;;;;;;;;;;;14.70;99.90;;;;;;5094630;28;20310;-64
2022/09/14 09:17:44;;;;;;;;;;;14.70;99.90;;;;;;5094257;28;20358;-64
2022/09/14 09:20:28;;;;;;;;;;;14.80;99.90;;;;;;5098824;28;20389;-64
2022/09/14 09:23:13;;;;;;;;;;;14.70;99.90;;;;;;5075332;28;19966;-64
2022/09/14 09:25:45;;;;;;;;;;;14.80;99.90;;;;;;5074168;28;20390;-64
2022/09/14 09:28:11;;;;;;;;;;;14.80;99.90;;;;;;5071901;28;19912;-65
2022/09/14 09:30:39;;;;;;;;;;;15.00;99.90;;;;;;5094743;28;19908;-63
2022/09/14 09:33:04;;;;;;;;;;;14.90;99.90;;;;;;5096123;28;19926;-64
2022/09/14 09:35:30;;;;;;;;;;;15.00;99.90;;;;;;5093931;28;20011;-64
2022/09/14 09:37:56;;;;;;;;;;;15.10;99.90;;;;;;5082364;28;19913;-63
2022/09/14 09:40:29;;;;;;;;;;;15.20;99.90;;;;;;5073771;28;19924;-63
2022/09/14 09:43:10;;;;;;;;;;;15.40;99.90;;;;;;5077526;28;20347;-64
2022/09/14 09:45:56;;;;;;;;;;;15.40;99.90;;;;;;5109815;28;20373;-63
2022/09/14 09:48:23;;;;;;;;;;;15.30;99.90;;;;;;5106075;28;19957;-64
2022/09/14 09:50:51;;;;;;;;;;;15.30;99.90;;;;;;5094311;28;20255;-63
2022/09/14 09:53:19;;;;;;;;;;;15.50;99.90;;;;;;5094123;28;19908;-64
2022/09/14 09:55:47;;;;;;;;;;;15.50;99.90;;;;;;5094350;28;19908;-63
2022/09/14 09:58:22;;;;;;;;;;;15.50;99.90;;;;;;5093922;28;20294;-64
2022/09/14 10:00:54;;;;;;;;;;;15.50;99.90;;;;;;5101628;28;19912;-63
2022/09/14 10:03:26;;;;;;;;;;;15.60;99.90;;;;;;5114309;28;19953;-63
2022/09/14 10:05:59;;;;;;;;;;;15.40;99.90;;;;;;5114328;28;19912;-63
2022/09/14 10:08:25;;;;;;;;;;;15.30;99.90;;;;;;5114062;28;19911;-63
2022/09/14 10:10:50;;;;;;;;;;;15.30;99.90;;;;;;5114303;28;20381;-63
2022/09/14 10:13:21;;;;;;;;;;;15.40;99.90;;;;;;5113561;28;20348;-64
2022/09/14 10:15:47;;;;;;;;;;;15.20;99.90;;;;;;5095798;28;19942;-63
2022/09/14 10:18:15;;;;;;;;;;;15.20;99.90;;;;;;5083728;28;20433;-63
2022/09/14 10:20:42;;;;;;;;;;;15.40;99.90;;;;;;5073613;28;20032;-63
2022/09/14 10:23:21;;;;;;;;;;;15.20;99.90;;;;;;5073193;28;19948;-63
2022/09/14 10:25:48;;;;;;;;;;;15.20;99.90;;;;;;5073019;28;19947;-63
2022/09/14 10:28:23;;;;;;;;;;;15.30;99.90;;;;;;5073547;28;20264;-63
2022/09/14 10:31:09;;;;;;;;;;;15.40;99.90;;;;;;5073607;28;19934;-63
2022/09/14 10:33:34;;;;;;;;;;;15.40;99.90;;;;;;5073510;28;19912;-64
2022/09/14 10:36:20;;;;;;;;;;;15.60;99.90;;;;;;5073401;28;19915;-64
2022/09/14 10:38:52;;;;;;;;;;;15.60;99.90;;;;;;5072933;28;20003;-63
2022/09/14 10:41:23;;;;;;;;;;;15.40;99.90;;;;;;5073363;28;20371;-64
2022/09/14 10:43:56;;;;;;;;;;;15.50;99.90;;;;;;5073283;28;19915;-63
2022/09/14 10:46:28;;;;;;;;;;;15.50;99.90;;;;;;5073195;28;20386;-63
2022/09/14 10:49:13;;;;;;;;;;;15.40;99.90;;;;;;5073134;28;19912;-63
2022/09/14 10:51:44;;;;;;;;;;;15.40;99.90;;;;;;5081098;28;19909;-64
2022/09/14 10:57:23;;;;;;;;;;;15.30;99.90;;;;;;5070784;28;20375;-64
2022/09/14 10:59:52;;;;;;;;;;;15.20;99.90;;;;;;5067093;28;19928;-63
2022/09/14 11:02:29;;;;;;;;;;;15.20;99.90;;;;;;5068967;28;20359;-64
2022/09/14 11:05:14;;;;;;;;;;;15.30;99.90;;;;;;5069234;28;20037;-63
2022/09/14 11:07:46;;;;;;;;;;;15.20;99.90;;;;;;5050927;28;19913;-63
2022/09/14 11:10:17;;;;;;;;;;;15.20;99.90;;;;;;5051423;28;19921;-63
2022/09/14 11:13:02;;;;;;;;;;;15.20;99.90;;;;;;5050167;28;19913;-64
2022/09/14 11:15:33;;;;;;;;;;;15.10;99.90;;;;;;5061557;28;19917;-64
2022/09/14 11:18:18;;;;;;;;;;;15.10;99.90;;;;;;5070105;28;19918;-65
2022/09/14 11:20:59;;;;;;;;;;;15.00;99.90;;;;;;5063451;28;19917;-63
2022/09/14 11:23:31;;;;;;;;;;;15.10;99.90;;;;;;5068479;28;19908;-64
2022/09/14 11:26:01;;;;;;;;;;;15.10;99.90;;;;;;5069374;28;19963;-65
2022/09/14 11:28:32;;;;;;;;;;;15.20;99.90;;;;;;5068228;28;20469;-64
2022/09/14 11:31:05;;;;;;;;;;;15.10;99.90;;;;;;5051009;28;19956;-64
2022/09/14 11:33:37;;;;;;;;;;;15.20;99.90;;;;;;5049282;28;19947;-64
2022/09/14 11:36:07;;;;;;;;;;;15.30;99.90;;;;;;5067564;28;19919;-64
2022/09/14 11:38:41;;;;;;;;;;;15.30;99.90;;;;;;5068809;28;19913;-64
2022/09/14 11:43:50;;;;;;;;;;;15.20;99.90;;;;;;5048301;28;19917;-64
2022/09/14 11:46:23;;;;;;;;;;;15.20;99.90;;;;;;5048751;28;20330;-64
2022/09/14 11:48:52;;;;;;;;;;;15.40;99.90;;;;;;5050841;28;20291;-63
2022/09/14 11:51:21;;;;;;;;;;;15.40;99.90;;;;;;5046230;28;19924;-65
2022/09/14 11:53:47;;;;;;;;;;;15.40;99.90;;;;;;5050693;28;19909;-64
2022/09/14 11:56:29;;;;;;;;;;;15.30;99.90;;;;;;5049099;28;20004;-65
2022/09/14 11:58:59;;;;;;;;;;;15.40;99.90;;;;;;5050542;28;19910;-64
2022/09/14 12:01:39;;;;;;;;;;;15.50;99.90;;;;;;5046072;28;19913;-64
2022/09/14 12:04:13;;;;;;;;;;;15.50;99.90;;;;;;5047978;28;20367;-64
2022/09/14 12:11:57;;;;;;;;;;;15.50;99.90;;;;;;5067327;28;20302;-64
2022/09/14 12:14:26;;;;;;;;;;;15.60;99.90;;;;;;5070723;28;19967;-64
2022/09/14 12:17:12;;;;;;;;;;;15.60;99.90;;;;;;5064571;28;20359;-63
2022/09/14 12:19:38;;;;;;;;;;;15.60;99.90;;;;;;5064098;28;20051;-63
2022/09/14 12:22:19;;;;;;;;;;;15.70;99.90;;;;;;5067720;28;19908;-63
2022/09/14 12:24:56;;;;;;;;;;;15.80;99.90;;;;;;5070637;28;19919;-63
2022/09/14 12:27:21;;;;;;;;;;;15.80;99.90;;;;;;5057317;28;19909;-67
2022/09/14 12:29:47;;;;;;;;;;;15.80;99.90;;;;;;5070158;28;20371;-63
2022/09/14 12:32:32;;;;;;;;;;;15.70;99.90;;;;;;5049424;28;19909;-63
2022/09/14 12:35:18;;;;;;;;;;;15.80;99.90;;;;;;5030317;28;20372;-63
2022/09/14 12:37:44;;;;;;;;;;;15.80;99.90;;;;;;5049848;28;20431;-64
2022/09/14 12:40:11;;;;;;;;;;;15.80;99.90;;;;;;5053400;28;19913;-63
2022/09/14 12:42:36;;;;;;;;;;;15.80;99.90;;;;;;5064696;28;19909;-63
2022/09/14 12:45:21;;;;;;;;;;;15.80;99.90;;;;;;5070065;28;20371;-63
2022/09/14 12:47:48;;;;;;;;;;;15.80;99.90;;;;;;5061105;28;19917;-63
2022/09/14 12:50:16;;;;;;;;;;;16.00;99.90;;;;;;5070176;28;19913;-63
2022/09/14 12:53:01;;;;;;;;;;;16.00;99.90;;;;;;5067597;28;19913;-63
2022/09/14 12:55:46;;;;;;;;;;;16.00;99.90;;;;;;5069495;28;20003;-63
2022/09/14 12:58:31;;;;;;;;;;;16.00;99.90;;;;;;5062110;28;19912;-65
2022/09/14 13:01:15;;;;;;;;;;;15.90;99.90;;;;;;5057575;28;19917;-64
2022/09/14 13:03:56;;;;;;;;;;;15.90;99.90;;;;;;5038475;28;19919;-64
2022/09/14 13:06:23;;;;;;;;;;;16.00;99.90;;;;;;5065021;28;20329;-63
2022/09/14 13:08:51;;;;;;;;;;;16.00;99.90;;;;;;5056229;28;19913;-66
2022/09/14 13:11:21;;;;;;;;;;;15.90;99.90;;;;;;5081252;28;20406;-63
2022/09/14 13:13:47;;;;;;;;;;;15.80;99.90;;;;;;5082409;28;20697;-63
2022/09/14 13:16:16;;;;;;;;;;;15.80;99.90;;;;;;5089567;28;20024;-63
2022/09/14 13:18:42;;;;;;;;;;;15.70;99.90;;;;;;5087055;28;20415;-63
2022/09/14 13:21:23;;;;;;;;;;;15.80;99.90;;;;;;5088638;28;19908;-64
2022/09/14 13:23:49;;;;;;;;;;;15.70;99.90;;;;;;5069959;28;20367;-63
2022/09/14 13:26:17;;;;;;;;;;;15.80;99.90;;;;;;5076289;28;19957;-64
2022/09/14 13:28:44;;;;;;;;;;;15.80;99.90;;;;;;5073891;28;19917;-64
2022/09/14 13:31:11;;;;;;;;;;;15.90;99.90;;;;;;5075506;28;19912;-63
2022/09/14 13:33:37;;;;;;;;;;;15.80;99.90;;;;;;5067330;28;20349;-63
2022/09/14 13:36:03;;;;;;;;;;;15.80;99.90;;;;;;5075851;28;19915;-63
2022/09/14 13:38:29;;;;;;;;;;;15.60;99.90;;;;;;5071049;28;19912;-63
2022/09/14 13:41:01;;;;;;;;;;;15.60;99.90;;;;;;5075853;28;19958;-63
2022/09/14 13:43:27;;;;;;;;;;;15.60;99.90;;;;;;5067778;28;20371;-63
2022/09/14 13:45:53;;;;;;;;;;;15.60;99.90;;;;;;5075618;28;19954;-63
2022/09/14 13:48:18;;;;;;;;;;;15.60;99.90;;;;;;5054165;28;19916;-63
2022/09/14 13:50:46;;;;;;;;;;;15.50;99.90;;;;;;5075298;28;19920;-63
2022/09/14 13:53:31;;;;;;;;;;;15.50;99.90;;;;;;5069940;28;20371;-63
2022/09/14 13:55:57;;;;;;;;;;;15.50;99.90;;;;;;5074990;28;19912;-63
2022/09/14 13:58:22;;;;;;;;;;;15.50;99.90;;;;;;5073074;28;19913;-63
2022/09/14 14:00:53;;;;;;;;;;;15.60;99.90;;;;;;5075272;28;20422;-64
2022/09/14 14:03:23;;;;;;;;;;;15.70;99.90;;;;;;5066895;28;19958;-64
2022/09/14 14:05:48;;;;;;;;;;;15.70;99.90;;;;;;5069416;28;20362;-65
2022/09/14 14:08:24;;;;;;;;;;;15.70;99.90;;;;;;5069962;28;19912;-64
2022/09/14 14:10:50;;;;;;;;;;;15.70;99.90;;;;;;5070397;28;19921;-64
2022/09/14 14:13:23;;;;;;;;;;;15.70;99.90;;;;;;5073046;28;19908;-64
2022/09/14 14:15:48;;;;;;;;;;;15.70;99.90;;;;;;5065958;28;19916;-64
2022/09/14 14:18:31;;;;;;;;;;;15.70;99.90;;;;;;5056640;28;19995;-63
2022/09/14 14:21:10;;;;;;;;;;;15.70;99.90;;;;;;5072660;28;19912;-63
2022/09/14 14:23:37;;;;;;;;;;;15.70;99.90;;;;;;5074897;28;20294;-63
2022/09/14 14:26:13;;;;;;;;;;;15.80;99.90;;;;;;5067958;28;20363;-64
2022/09/14 14:28:39;;;;;;;;;;;15.80;99.90;;;;;;5074850;28;19909;-63
2022/09/14 14:31:08;;;;;;;;;;;15.70;99.90;;;;;;5062865;28;19939;-64
2022/09/14 14:33:35;;;;;;;;;;;15.70;99.90;;;;;;5065055;28;19913;-64
2022/09/14 14:36:11;;;;;;;;;;;15.70;99.90;;;;;;5065883;28;20318;-63
2022/09/14 14:38:37;;;;;;;;;;;15.70;99.90;;;;;;5035193;28;19971;-63
2022/09/14 14:41:03;;;;;;;;;;;15.70;99.90;;;;;;5042028;28;19916;-65
2022/09/14 14:43:29;;;;;;;;;;;15.70;99.90;;;;;;5066684;28;20375;-64